sensor_id;sensor_type;location;lat;lon;timestamp;P1;durP1;ratioP1;P2;durP2;ratioP2
40637;SDS011;26336;44.696;10.622;2023-03-21T00:02:40;28.10;;;23.67;;
40637;SDS011;26336;44.696;10.622;2023-03-21T00:05:45;29.83;;;24.63;;
40637;SDS011;26336;44.696;10.622;2023-03-21T00:08:51;31.23;;;25.40;;
40637;SDS011;26336;44.696;10.622;2023-03-21T00:11:55;26.80;;;23.53;;
40637;SDS011;26336;44.696;10.622;2023-03-21T00:14:59;28.67;;;24.23;;
40637;SDS011;26336;44.696;10.622;2023-03-21T00:18:07;29.87;;;24.33;;
40637;SDS011;26336;44.696;10.622;2023-03-21T00:21:17;32.80;;;25.87;;
40637;SDS011;26336;44.696;10.622;2023-03-21T00:24:23;31.13;;;24.67;;
40637;SDS011;26336;44.696;10.622;2023-03-21T00:27:28;26.97;;;23.80;;
40637;SDS011;26336;44.696;10.622;2023-03-21T00:30:32;29.88;;;24.98;;
40637;SDS011;26336;44.696;10.622;2023-03-21T00:33:36;31.30;;;24.67;;
40637;SDS011;26336;44.696;10.622;2023-03-21T00:36:43;28.50;;;23.63;;
40637;SDS011;26336;44.696;10.622;2023-03-21T00:39:47;33.43;;;25.23;;
40637;SDS011;26336;44.696;10.622;2023-03-21T00:42:51;28.97;;;25.10;;
40637;SDS011;26336;44.696;10.622;2023-03-21T00:46:01;32.97;;;25.10;;
40637;SDS011;26336;44.696;10.622;2023-03-21T00:49:11;29.83;;;23.30;;
40637;SDS011;26336;44.696;10.622;2023-03-21T00:52:17;29.40;;;23.67;;
40637;SDS011;26336;44.696;10.622;2023-03-21T00:55:21;28.53;;;25.40;;
40637;SDS011;26336;44.696;10.622;2023-03-21T00:58:25;30.37;;;23.87;;
40637;SDS011;26336;44.696;10.622;2023-03-21T01:01:29;28.43;;;23.37;;
40637;SDS011;26336;44.696;10.622;2023-03-21T01:04:36;30.33;;;23.43;;
40637;SDS011;26336;44.696;10.622;2023-03-21T01:07:42;29.63;;;24.47;;
40637;SDS011;26336;44.696;10.622;2023-03-21T01:10:47;30.93;;;25.00;;
40637;SDS011;26336;44.696;10.622;2023-03-21T01:13:55;29.77;;;23.93;;
40637;SDS011;26336;44.696;10.622;2023-03-21T01:16:59;33.67;;;26.23;;
40637;SDS011;26336;44.696;10.622;2023-03-21T01:20:03;29.03;;;24.30;;
40637;SDS011;26336;44.696;10.622;2023-03-21T01:23:09;28.27;;;24.07;;
40637;SDS011;26336;44.696;10.622;2023-03-21T01:26:15;31.33;;;25.07;;
40637;SDS011;26336;44.696;10.622;2023-03-21T01:29:20;29.07;;;24.00;;
40637;SDS011;26336;44.696;10.622;2023-03-21T01:32:24;30.33;;;24.73;;
40637;SDS011;26336;44.696;10.622;2023-03-21T01:35:28;28.03;;;22.33;;
40637;SDS011;26336;44.696;10.622;2023-03-21T01:38:32;33.37;;;24.47;;
40637;SDS011;26336;44.696;10.622;2023-03-21T01:41:38;29.77;;;23.67;;
40637;SDS011;26336;44.696;10.622;2023-03-21T01:44:59;35.55;;;25.20;;
40637;SDS011;26336;44.696;10.622;2023-03-21T01:48:21;30.47;;;25.07;;
40637;SDS011;26336;44.696;10.622;2023-03-21T01:51:31;28.60;;;23.53;;
40637;SDS011;26336;44.696;10.622;2023-03-21T01:54:39;32.07;;;24.57;;
40637;SDS011;26336;44.696;10.622;2023-03-21T01:57:45;32.53;;;25.23;;
40637;SDS011;26336;44.696;10.622;2023-03-21T02:00:55;30.27;;;24.63;;
40637;SDS011;26336;44.696;10.622;2023-03-21T02:04:08;29.00;;;23.70;;
40637;SDS011;26336;44.696;10.622;2023-03-21T02:07:33;29.40;;;24.97;;
40637;SDS011;26336;44.696;10.622;2023-03-21T02:10:44;30.17;;;24.57;;
40637;SDS011;26336;44.696;10.622;2023-03-21T02:13:59;30.30;;;25.47;;
40637;SDS011;26336;44.696;10.622;2023-03-21T02:27:58;30.80;;;24.87;;
40637;SDS011;26336;44.696;10.622;2023-03-21T02:35:30;30.10;;;24.57;;
40637;SDS011;26336;44.696;10.622;2023-03-21T02:41:52;32.60;;;25.70;;
40637;SDS011;26336;44.696;10.622;2023-03-21T02:45:21;29.87;;;25.10;;
40637;SDS011;26336;44.696;10.622;2023-03-21T02:48:36;31.63;;;24.63;;
40637;SDS011;26336;44.696;10.622;2023-03-21T02:51:48;29.80;;;24.73;;
40637;SDS011;26336;44.696;10.622;2023-03-21T02:54:54;29.77;;;24.43;;
40637;SDS011;26336;44.696;10.622;2023-03-21T02:58:08;31.70;;;24.70;;
40637;SDS011;26336;44.696;10.622;2023-03-21T03:01:20;33.80;;;25.60;;
40637;SDS011;26336;44.696;10.622;2023-03-21T03:04:28;30.93;;;24.93;;
40637;SDS011;26336;44.696;10.622;2023-03-21T03:07:39;32.50;;;26.03;;
40637;SDS011;26336;44.696;10.622;2023-03-21T03:14:16;33.57;;;26.30;;
40637;SDS011;26336;44.696;10.622;2023-03-21T03:24:23;33.20;;;25.80;;
40637;SDS011;26336;44.696;10.622;2023-03-21T03:27:32;34.00;;;25.93;;
40637;SDS011;26336;44.696;10.622;2023-03-21T03:30:40;32.00;;;25.17;;
40637;SDS011;26336;44.696;10.622;2023-03-21T03:33:48;30.97;;;24.63;;
40637;SDS011;26336;44.696;10.622;2023-03-21T03:36:55;30.67;;;24.40;;
40637;SDS011;26336;44.696;10.622;2023-03-21T03:40:05;32.20;;;25.50;;
40637;SDS011;26336;44.696;10.622;2023-03-21T03:43:21;28.57;;;23.43;;
40637;SDS011;26336;44.696;10.622;2023-03-21T03:46:39;32.50;;;23.97;;
40637;SDS011;26336;44.696;10.622;2023-03-21T03:50:00;29.80;;;24.33;;
40637;SDS011;26336;44.696;10.622;2023-03-21T03:53:19;31.60;;;23.87;;
40637;SDS011;26336;44.696;10.622;2023-03-21T03:56:37;30.47;;;23.83;;
40637;SDS011;26336;44.696;10.622;2023-03-21T03:59:43;31.83;;;24.47;;
40637;SDS011;26336;44.696;10.622;2023-03-21T04:03:09;33.23;;;25.13;;
40637;SDS011;26336;44.696;10.622;2023-03-21T04:06:14;29.97;;;24.70;;
40637;SDS011;26336;44.696;10.622;2023-03-21T04:09:18;32.70;;;24.70;;
40637;SDS011;26336;44.696;10.622;2023-03-21T04:12:23;29.47;;;24.53;;
40637;SDS011;26336;44.696;10.622;2023-03-21T04:15:47;31.33;;;25.07;;
40637;SDS011;26336;44.696;10.622;2023-03-21T04:18:52;29.73;;;24.30;;
40637;SDS011;26336;44.696;10.622;2023-03-21T04:21:56;31.07;;;24.83;;
40637;SDS011;26336;44.696;10.622;2023-03-21T04:25:00;32.53;;;25.87;;
40637;SDS011;26336;44.696;10.622;2023-03-21T04:28:05;32.97;;;25.37;;
40637;SDS011;26336;44.696;10.622;2023-03-21T04:31:15;33.27;;;25.37;;
40637;SDS011;26336;44.696;10.622;2023-03-21T04:34:24;34.20;;;27.03;;
40637;SDS011;26336;44.696;10.622;2023-03-21T04:37:33;32.17;;;24.93;;
40637;SDS011;26336;44.696;10.622;2023-03-21T04:40:39;34.70;;;24.90;;
40637;SDS011;26336;44.696;10.622;2023-03-21T04:43:43;32.50;;;24.10;;
40637;SDS011;26336;44.696;10.622;2023-03-21T04:46:48;31.00;;;24.53;;
40637;SDS011;26336;44.696;10.622;2023-03-21T04:49:52;33.20;;;26.03;;
40637;SDS011;26336;44.696;10.622;2023-03-21T04:52:56;30.43;;;24.30;;
40637;SDS011;26336;44.696;10.622;2023-03-21T04:56:00;28.93;;;23.83;;
40637;SDS011;26336;44.696;10.622;2023-03-21T04:59:06;28.07;;;23.63;;
40637;SDS011;26336;44.696;10.622;2023-03-21T05:02:13;30.30;;;24.13;;
40637;SDS011;26336;44.696;10.622;2023-03-21T05:05:18;28.03;;;23.60;;
40637;SDS011;26336;44.696;10.622;2023-03-21T05:08:22;29.33;;;22.93;;
40637;SDS011;26336;44.696;10.622;2023-03-21T05:11:26;30.37;;;23.87;;
40637;SDS011;26336;44.696;10.622;2023-03-21T05:14:33;29.13;;;24.30;;
40637;SDS011;26336;44.696;10.622;2023-03-21T05:17:37;27.83;;;22.37;;
40637;SDS011;26336;44.696;10.622;2023-03-21T05:20:41;28.20;;;22.50;;
40637;SDS011;26336;44.696;10.622;2023-03-21T05:23:45;27.77;;;21.10;;
40637;SDS011;26336;44.696;10.622;2023-03-21T05:26:56;28.13;;;21.23;;
40637;SDS011;26336;44.696;10.622;2023-03-21T05:30:07;28.83;;;21.33;;
40637;SDS011;26336;44.696;10.622;2023-03-21T05:33:16;26.77;;;21.53;;
40637;SDS011;26336;44.696;10.622;2023-03-21T05:36:20;25.93;;;21.40;;
40637;SDS011;26336;44.696;10.622;2023-03-21T05:39:25;31.97;;;23.60;;
40637;SDS011;26336;44.696;10.622;2023-03-21T05:42:37;27.30;;;21.25;;
40637;SDS011;26336;44.696;10.622;2023-03-21T05:45:51;27.40;;;21.63;;
40637;SDS011;26336;44.696;10.622;2023-03-21T05:48:55;25.60;;;20.60;;
40637;SDS011;26336;44.696;10.622;2023-03-21T05:52:01;27.23;;;21.87;;
40637;SDS011;26336;44.696;10.622;2023-03-21T05:55:06;30.10;;;21.80;;
40637;SDS011;26336;44.696;10.622;2023-03-21T05:58:10;30.70;;;23.23;;
40637;SDS011;26336;44.696;10.622;2023-03-21T06:01:16;29.90;;;23.03;;
40637;SDS011;26336;44.696;10.622;2023-03-21T06:04:27;29.20;;;22.37;;
40637;SDS011;26336;44.696;10.622;2023-03-21T06:07:32;28.83;;;21.77;;
40637;SDS011;26336;44.696;10.622;2023-03-21T06:10:37;31.17;;;23.43;;
40637;SDS011;26336;44.696;10.622;2023-03-21T06:13:41;28.53;;;22.27;;
40637;SDS011;26336;44.696;10.622;2023-03-21T06:16:45;31.80;;;24.00;;
40637;SDS011;26336;44.696;10.622;2023-03-21T06:19:49;31.53;;;23.57;;
40637;SDS011;26336;44.696;10.622;2023-03-21T06:23:17;30.03;;;23.80;;
40637;SDS011;26336;44.696;10.622;2023-03-21T06:26:21;30.13;;;23.53;;
40637;SDS011;26336;44.696;10.622;2023-03-21T06:29:26;31.13;;;23.97;;
40637;SDS011;26336;44.696;10.622;2023-03-21T06:32:30;29.20;;;22.77;;
40637;SDS011;26336;44.696;10.622;2023-03-21T06:35:43;31.77;;;23.98;;
40637;SDS011;26336;44.696;10.622;2023-03-21T06:38:48;27.60;;;23.07;;
40637;SDS011;26336;44.696;10.622;2023-03-21T06:41:51;30.10;;;23.60;;
40637;SDS011;26336;44.696;10.622;2023-03-21T06:44:55;31.97;;;25.10;;
40637;SDS011;26336;44.696;10.622;2023-03-21T06:47:59;30.93;;;24.80;;
40637;SDS011;26336;44.696;10.622;2023-03-21T06:51:11;30.23;;;24.27;;
40637;SDS011;26336;44.696;10.622;2023-03-21T06:54:24;35.33;;;25.90;;
40637;SDS011;26336;44.696;10.622;2023-03-21T07:00:42;32.33;;;23.80;;
40637;SDS011;26336;44.696;10.622;2023-03-21T07:03:47;31.57;;;24.70;;
40637;SDS011;26336;44.696;10.622;2023-03-21T07:06:52;37.13;;;26.43;;
40637;SDS011;26336;44.696;10.622;2023-03-21T07:09:57;32.57;;;25.33;;
40637;SDS011;26336;44.696;10.622;2023-03-21T07:13:04;30.33;;;24.77;;
40637;SDS011;26336;44.696;10.622;2023-03-21T07:16:14;33.03;;;26.07;;
40637;SDS011;26336;44.696;10.622;2023-03-21T07:19:19;35.90;;;26.83;;
40637;SDS011;26336;44.696;10.622;2023-03-21T07:22:23;30.40;;;25.13;;
40637;SDS011;26336;44.696;10.622;2023-03-21T07:25:27;35.67;;;26.87;;
40637;SDS011;26336;44.696;10.622;2023-03-21T07:28:31;37.80;;;29.07;;
40637;SDS011;26336;44.696;10.622;2023-03-21T07:31:35;33.03;;;26.37;;
40637;SDS011;26336;44.696;10.622;2023-03-21T07:34:41;34.10;;;26.17;;
40637;SDS011;26336;44.696;10.622;2023-03-21T07:37:45;34.80;;;25.80;;
40637;SDS011;26336;44.696;10.622;2023-03-21T07:40:52;35.67;;;27.33;;
40637;SDS011;26336;44.696;10.622;2023-03-21T07:43:56;35.63;;;27.70;;
40637;SDS011;26336;44.696;10.622;2023-03-21T07:47:07;35.80;;;26.77;;
40637;SDS011;26336;44.696;10.622;2023-03-21T07:50:11;37.33;;;27.17;;
40637;SDS011;26336;44.696;10.622;2023-03-21T07:53:15;37.80;;;28.93;;
40637;SDS011;26336;44.696;10.622;2023-03-21T07:56:19;33.70;;;26.60;;
40637;SDS011;26336;44.696;10.622;2023-03-21T07:59:24;36.25;;;27.98;;
40637;SDS011;26336;44.696;10.622;2023-03-21T08:02:28;35.13;;;27.23;;
40637;SDS011;26336;44.696;10.622;2023-03-21T08:05:33;35.75;;;28.15;;
40637;SDS011;26336;44.696;10.622;2023-03-21T08:08:39;33.85;;;26.05;;
40637;SDS011;26336;44.696;10.622;2023-03-21T08:11:42;34.60;;;26.45;;
40637;SDS011;26336;44.696;10.622;2023-03-21T08:14:46;34.30;;;28.33;;
40637;SDS011;26336;44.696;10.622;2023-03-21T08:17:50;41.33;;;27.25;;
40637;SDS011;26336;44.696;10.622;2023-03-21T08:20:55;32.78;;;25.27;;
40637;SDS011;26336;44.696;10.622;2023-03-21T08:23:59;31.65;;;26.23;;
40637;SDS011;26336;44.696;10.622;2023-03-21T08:27:03;35.13;;;27.42;;
40637;SDS011;26336;44.696;10.622;2023-03-21T08:30:09;32.58;;;24.63;;
40637;SDS011;26336;44.696;10.622;2023-03-21T08:33:14;34.63;;;26.48;;
40637;SDS011;26336;44.696;10.622;2023-03-21T08:36:21;32.47;;;23.50;;
40637;SDS011;26336;44.696;10.622;2023-03-21T08:39:28;33.60;;;25.73;;
40637;SDS011;26336;44.696;10.622;2023-03-21T08:42:32;28.85;;;24.05;;
40637;SDS011;26336;44.696;10.622;2023-03-21T08:45:37;35.55;;;23.33;;
40637;SDS011;26336;44.696;10.622;2023-03-21T08:48:41;29.30;;;22.40;;
40637;SDS011;26336;44.696;10.622;2023-03-21T08:51:45;24.55;;;20.58;;
40637;SDS011;26336;44.696;10.622;2023-03-21T08:54:49;25.42;;;19.60;;
40637;SDS011;26336;44.696;10.622;2023-03-21T08:57:53;26.23;;;18.98;;
40637;SDS011;26336;44.696;10.622;2023-03-21T09:00:58;20.95;;;17.92;;
40637;SDS011;26336;44.696;10.622;2023-03-21T09:04:01;24.48;;;19.90;;
40637;SDS011;26336;44.696;10.622;2023-03-21T09:07:06;22.38;;;17.15;;
40637;SDS011;26336;44.696;10.622;2023-03-21T09:10:12;21.58;;;18.05;;
40637;SDS011;26336;44.696;10.622;2023-03-21T09:13:17;22.20;;;19.55;;
40637;SDS011;26336;44.696;10.622;2023-03-21T09:16:22;23.15;;;18.98;;
40637;SDS011;26336;44.696;10.622;2023-03-21T09:19:27;23.15;;;18.55;;
40637;SDS011;26336;44.696;10.622;2023-03-21T09:22:32;21.17;;;17.92;;
40637;SDS011;26336;44.696;10.622;2023-03-21T09:25:36;22.85;;;18.50;;
40637;SDS011;26336;44.696;10.622;2023-03-21T09:28:41;23.52;;;17.50;;
40637;SDS011;26336;44.696;10.622;2023-03-21T09:31:45;27.35;;;19.17;;
40637;SDS011;26336;44.696;10.622;2023-03-21T09:34:49;27.08;;;21.15;;
40637;SDS011;26336;44.696;10.622;2023-03-21T09:37:55;28.92;;;22.65;;
40637;SDS011;26336;44.696;10.622;2023-03-21T09:41:18;28.13;;;22.00;;
40637;SDS011;26336;44.696;10.622;2023-03-21T09:44:45;23.77;;;20.73;;
40637;SDS011;26336;44.696;10.622;2023-03-21T09:51:53;31.50;;;23.85;;
40637;SDS011;26336;44.696;10.622;2023-03-21T09:54:58;29.90;;;26.08;;
40637;SDS011;26336;44.696;10.622;2023-03-21T10:04:29;35.80;;;26.67;;
40637;SDS011;26336;44.696;10.622;2023-03-21T10:07:38;30.73;;;23.70;;
40637;SDS011;26336;44.696;10.622;2023-03-21T10:10:48;24.23;;;19.40;;
40637;SDS011;26336;44.696;10.622;2023-03-21T10:14:00;29.63;;;22.42;;
40637;SDS011;26336;44.696;10.622;2023-03-21T10:20:30;31.88;;;24.80;;
40637;SDS011;26336;44.696;10.622;2023-03-21T10:23:35;29.83;;;23.50;;
40637;SDS011;26336;44.696;10.622;2023-03-21T10:26:39;29.30;;;22.13;;
40637;SDS011;26336;44.696;10.622;2023-03-21T10:29:45;30.65;;;24.17;;
40637;SDS011;26336;44.696;10.622;2023-03-21T10:32:49;30.90;;;22.23;;
40637;SDS011;26336;44.696;10.622;2023-03-21T10:36:01;25.15;;;21.13;;
40637;SDS011;26336;44.696;10.622;2023-03-21T10:39:14;26.92;;;21.52;;
40637;SDS011;26336;44.696;10.622;2023-03-21T10:42:27;28.35;;;22.30;;
40637;SDS011;26336;44.696;10.622;2023-03-21T10:45:35;26.98;;;22.52;;
40637;SDS011;26336;44.696;10.622;2023-03-21T10:48:40;26.10;;;21.60;;
40637;SDS011;26336;44.696;10.622;2023-03-21T10:51:48;30.90;;;23.48;;
40637;SDS011;26336;44.696;10.622;2023-03-21T10:55:06;21.90;;;18.25;;
40637;SDS011;26336;44.696;10.622;2023-03-21T10:58:35;28.60;;;22.60;;
40637;SDS011;26336;44.696;10.622;2023-03-21T11:01:49;31.20;;;24.52;;
40637;SDS011;26336;44.696;10.622;2023-03-21T11:04:54;23.33;;;20.10;;
40637;SDS011;26336;44.696;10.622;2023-03-21T11:08:10;25.45;;;20.88;;
40637;SDS011;26336;44.696;10.622;2023-03-21T11:11:23;26.95;;;20.42;;
40637;SDS011;26336;44.696;10.622;2023-03-21T11:14:36;29.52;;;24.63;;
40637;SDS011;26336;44.696;10.622;2023-03-21T11:17:45;27.05;;;22.83;;
40637;SDS011;26336;44.696;10.622;2023-03-21T11:24:15;30.25;;;22.70;;
40637;SDS011;26336;44.696;10.622;2023-03-21T11:27:20;27.02;;;22.20;;
40637;SDS011;26336;44.696;10.622;2023-03-21T11:30:26;29.13;;;25.05;;
40637;SDS011;26336;44.696;10.622;2023-03-21T11:33:45;33.45;;;24.48;;
40637;SDS011;26336;44.696;10.622;2023-03-21T11:36:59;26.25;;;21.77;;
40637;SDS011;26336;44.696;10.622;2023-03-21T11:43:29;40.03;;;26.33;;
40637;SDS011;26336;44.696;10.622;2023-03-21T11:46:38;35.75;;;26.95;;
40637;SDS011;26336;44.696;10.622;2023-03-21T11:49:43;31.08;;;24.25;;
40637;SDS011;26336;44.696;10.622;2023-03-21T12:06:50;23.75;;;18.27;;
40637;SDS011;26336;44.696;10.622;2023-03-21T12:13:26;22.23;;;17.65;;
40637;SDS011;26336;44.696;10.622;2023-03-21T12:16:47;21.38;;;17.85;;
40637;SDS011;26336;44.696;10.622;2023-03-21T12:29:55;21.90;;;19.17;;
40637;SDS011;26336;44.696;10.622;2023-03-21T12:37:50;23.92;;;19.45;;
40637;SDS011;26336;44.696;10.622;2023-03-21T12:43:49;26.88;;;21.23;;
40637;SDS011;26336;44.696;10.622;2023-03-21T12:47:03;20.05;;;15.60;;
40637;SDS011;26336;44.696;10.622;2023-03-21T12:50:17;23.45;;;19.63;;
40637;SDS011;26336;44.696;10.622;2023-03-21T12:57:00;26.38;;;20.05;;
40637;SDS011;26336;44.696;10.622;2023-03-21T13:00:44;27.25;;;19.33;;
40637;SDS011;26336;44.696;10.622;2023-03-21T13:03:58;21.92;;;15.90;;
40637;SDS011;26336;44.696;10.622;2023-03-21T13:07:34;25.13;;;19.48;;
40637;SDS011;26336;44.696;10.622;2023-03-21T13:10:43;25.17;;;19.33;;
40637;SDS011;26336;44.696;10.622;2023-03-21T13:17:10;22.98;;;18.77;;
40637;SDS011;26336;44.696;10.622;2023-03-21T13:20:25;19.50;;;16.02;;
40637;SDS011;26336;44.696;10.622;2023-03-21T13:24:03;24.52;;;17.48;;
40637;SDS011;26336;44.696;10.622;2023-03-21T13:30:35;16.67;;;14.68;;
40637;SDS011;26336;44.696;10.622;2023-03-21T13:33:57;19.90;;;16.38;;
40637;SDS011;26336;44.696;10.622;2023-03-21T13:37:02;19.52;;;15.75;;
40637;SDS011;26336;44.696;10.622;2023-03-21T13:40:55;21.05;;;17.15;;
40637;SDS011;26336;44.696;10.622;2023-03-21T13:47:23;21.15;;;16.45;;
40637;SDS011;26336;44.696;10.622;2023-03-21T13:51:04;15.73;;;12.27;;
40637;SDS011;26336;44.696;10.622;2023-03-21T14:00:36;14.93;;;12.30;;
40637;SDS011;26336;44.696;10.622;2023-03-21T14:03:43;16.15;;;12.32;;
40637;SDS011;26336;44.696;10.622;2023-03-21T14:07:04;17.58;;;13.80;;
40637;SDS011;26336;44.696;10.622;2023-03-21T14:10:21;17.45;;;13.95;;
40637;SDS011;26336;44.696;10.622;2023-03-21T14:13:32;17.08;;;13.48;;
40637;SDS011;26336;44.696;10.622;2023-03-21T14:16:37;17.35;;;15.43;;
40637;SDS011;26336;44.696;10.622;2023-03-21T14:19:49;18.40;;;14.40;;
40637;SDS011;26336;44.696;10.622;2023-03-21T14:23:02;14.20;;;11.55;;
40637;SDS011;26336;44.696;10.622;2023-03-21T14:26:10;20.48;;;15.30;;
40637;SDS011;26336;44.696;10.622;2023-03-21T14:29:32;19.92;;;16.10;;
40637;SDS011;26336;44.696;10.622;2023-03-21T14:32:45;18.30;;;14.25;;
40637;SDS011;26336;44.696;10.622;2023-03-21T14:36:04;16.02;;;12.77;;
40637;SDS011;26336;44.696;10.622;2023-03-21T14:39:19;21.25;;;14.82;;
40637;SDS011;26336;44.696;10.622;2023-03-21T14:42:31;20.35;;;14.18;;
40637;SDS011;26336;44.696;10.622;2023-03-21T14:45:38;17.10;;;13.93;;
40637;SDS011;26336;44.696;10.622;2023-03-21T14:48:43;20.45;;;13.98;;
40637;SDS011;26336;44.696;10.622;2023-03-21T14:51:48;17.25;;;13.27;;
40637;SDS011;26336;44.696;10.622;2023-03-21T14:54:53;16.90;;;12.93;;
40637;SDS011;26336;44.696;10.622;2023-03-21T14:57:58;20.60;;;14.68;;
40637;SDS011;26336;44.696;10.622;2023-03-21T15:01:04;21.08;;;15.85;;
40637;SDS011;26336;44.696;10.622;2023-03-21T15:04:11;20.83;;;16.63;;
40637;SDS011;26336;44.696;10.622;2023-03-21T15:07:35;18.20;;;15.05;;
40637;SDS011;26336;44.696;10.622;2023-03-21T15:10:40;19.00;;;13.32;;
40637;SDS011;26336;44.696;10.622;2023-03-21T15:13:55;18.63;;;14.90;;
40637;SDS011;26336;44.696;10.622;2023-03-21T15:17:02;21.70;;;14.65;;
40637;SDS011;26336;44.696;10.622;2023-03-21T15:20:12;17.63;;;14.48;;
40637;SDS011;26336;44.696;10.622;2023-03-21T15:23:40;18.35;;;14.20;;
40637;SDS011;26336;44.696;10.622;2023-03-21T15:26:44;18.63;;;14.93;;
40637;SDS011;26336;44.696;10.622;2023-03-21T15:29:50;29.63;;;14.45;;
40637;SDS011;26336;44.696;10.622;2023-03-21T15:33:04;16.55;;;14.18;;
40637;SDS011;26336;44.696;10.622;2023-03-21T15:36:11;18.10;;;14.45;;
40637;SDS011;26336;44.696;10.622;2023-03-21T15:39:16;15.10;;;13.38;;
40637;SDS011;26336;44.696;10.622;2023-03-21T15:42:39;14.35;;;12.23;;
40637;SDS011;26336;44.696;10.622;2023-03-21T15:46:01;17.15;;;13.55;;
40637;SDS011;26336;44.696;10.622;2023-03-21T15:52:28;15.57;;;12.43;;
40637;SDS011;26336;44.696;10.622;2023-03-21T15:55:39;15.07;;;11.60;;
40637;SDS011;26336;44.696;10.622;2023-03-21T15:58:54;14.63;;;11.88;;
40637;SDS011;26336;44.696;10.622;2023-03-21T16:02:00;14.45;;;11.77;;
40637;SDS011;26336;44.696;10.622;2023-03-21T16:05:37;13.65;;;11.38;;
40637;SDS011;26336;44.696;10.622;2023-03-21T16:08:49;15.85;;;12.00;;
40637;SDS011;26336;44.696;10.622;2023-03-21T16:11:56;14.73;;;10.38;;
40637;SDS011;26336;44.696;10.622;2023-03-21T16:15:10;17.98;;;12.07;;
40637;SDS011;26336;44.696;10.622;2023-03-21T16:18:15;19.25;;;13.05;;
40637;SDS011;26336;44.696;10.622;2023-03-21T16:21:20;13.02;;;11.05;;
40637;SDS011;26336;44.696;10.622;2023-03-21T16:24:32;14.52;;;12.00;;
40637;SDS011;26336;44.696;10.622;2023-03-21T16:27:42;15.07;;;12.20;;
40637;SDS011;26336;44.696;10.622;2023-03-21T16:30:47;18.02;;;13.32;;
40637;SDS011;26336;44.696;10.622;2023-03-21T16:33:59;15.77;;;12.23;;
40637;SDS011;26336;44.696;10.622;2023-03-21T16:37:08;18.15;;;14.13;;
40637;SDS011;26336;44.696;10.622;2023-03-21T16:43:33;16.63;;;13.98;;
40637;SDS011;26336;44.696;10.622;2023-03-21T16:47:18;22.55;;;15.18;;
40637;SDS011;26336;44.696;10.622;2023-03-21T16:50:26;23.88;;;14.60;;
40637;SDS011;26336;44.696;10.622;2023-03-21T16:53:37;17.65;;;13.90;;
40637;SDS011;26336;44.696;10.622;2023-03-21T16:56:42;23.83;;;15.35;;
40637;SDS011;26336;44.696;10.622;2023-03-21T16:59:50;17.80;;;13.20;;
40637;SDS011;26336;44.696;10.622;2023-03-21T17:02:55;18.33;;;14.18;;
40637;SDS011;26336;44.696;10.622;2023-03-21T17:06:02;18.60;;;14.40;;
40637;SDS011;26336;44.696;10.622;2023-03-21T17:09:08;17.20;;;12.85;;
40637;SDS011;26336;44.696;10.622;2023-03-21T17:12:14;18.02;;;13.48;;
40637;SDS011;26336;44.696;10.622;2023-03-21T17:15:20;20.40;;;14.23;;
40637;SDS011;26336;44.696;10.622;2023-03-21T17:18:24;19.33;;;14.00;;
40637;SDS011;26336;44.696;10.622;2023-03-21T17:21:31;19.88;;;13.80;;
40637;SDS011;26336;44.696;10.622;2023-03-21T17:24:36;20.10;;;13.43;;
40637;SDS011;26336;44.696;10.622;2023-03-21T17:27:40;18.30;;;12.25;;
40637;SDS011;26336;44.696;10.622;2023-03-21T17:30:45;20.15;;;14.05;;
40637;SDS011;26336;44.696;10.622;2023-03-21T17:33:49;14.65;;;11.93;;
40637;SDS011;26336;44.696;10.622;2023-03-21T17:36:53;18.00;;;13.95;;
40637;SDS011;26336;44.696;10.622;2023-03-21T17:39:58;19.98;;;14.63;;
40637;SDS011;26336;44.696;10.622;2023-03-21T17:43:01;20.05;;;14.13;;
40637;SDS011;26336;44.696;10.622;2023-03-21T17:46:06;20.90;;;15.20;;
40637;SDS011;26336;44.696;10.622;2023-03-21T17:49:15;18.20;;;14.30;;
40637;SDS011;26336;44.696;10.622;2023-03-21T17:52:25;21.30;;;13.93;;
40637;SDS011;26336;44.696;10.622;2023-03-21T17:55:29;19.75;;;16.33;;
40637;SDS011;26336;44.696;10.622;2023-03-21T17:58:34;20.58;;;15.98;;
40637;SDS011;26336;44.696;10.622;2023-03-21T18:01:38;19.70;;;16.17;;
40637;SDS011;26336;44.696;10.622;2023-03-21T18:04:43;20.13;;;15.95;;
40637;SDS011;26336;44.696;10.622;2023-03-21T18:07:48;18.20;;;15.02;;
40637;SDS011;26336;44.696;10.622;2023-03-21T18:11:07;19.83;;;16.58;;
40637;SDS011;26336;44.696;10.622;2023-03-21T18:14:38;19.73;;;15.10;;
40637;SDS011;26336;44.696;10.622;2023-03-21T18:17:55;20.95;;;15.43;;
40637;SDS011;26336;44.696;10.622;2023-03-21T18:21:09;19.63;;;15.90;;
40637;SDS011;26336;44.696;10.622;2023-03-21T18:24:13;20.95;;;15.02;;
40637;SDS011;26336;44.696;10.622;2023-03-21T18:27:18;20.83;;;15.43;;
40637;SDS011;26336;44.696;10.622;2023-03-21T18:30:22;18.02;;;14.25;;
40637;SDS011;26336;44.696;10.622;2023-03-21T18:33:26;21.60;;;16.00;;
40637;SDS011;26336;44.696;10.622;2023-03-21T18:36:32;20.92;;;17.83;;
40637;SDS011;26336;44.696;10.622;2023-03-21T18:39:36;23.10;;;18.40;;
40637;SDS011;26336;44.696;10.622;2023-03-21T18:42:42;20.10;;;17.38;;
40637;SDS011;26336;44.696;10.622;2023-03-21T18:45:47;27.73;;;19.67;;
40637;SDS011;26336;44.696;10.622;2023-03-21T18:48:51;23.05;;;19.00;;
40637;SDS011;26336;44.696;10.622;2023-03-21T18:52:10;28.48;;;19.52;;
40637;SDS011;26336;44.696;10.622;2023-03-21T18:55:14;27.40;;;21.17;;
40637;SDS011;26336;44.696;10.622;2023-03-21T18:58:38;21.88;;;17.75;;
40637;SDS011;26336;44.696;10.622;2023-03-21T19:01:42;20.38;;;16.70;;
40637;SDS011;26336;44.696;10.622;2023-03-21T19:04:46;22.27;;;18.23;;
40637;SDS011;26336;44.696;10.622;2023-03-21T19:07:51;22.13;;;17.88;;
40637;SDS011;26336;44.696;10.622;2023-03-21T19:10:58;24.55;;;19.40;;
40637;SDS011;26336;44.696;10.622;2023-03-21T19:14:01;23.92;;;18.50;;
40637;SDS011;26336;44.696;10.622;2023-03-21T19:17:06;23.15;;;19.48;;
40637;SDS011;26336;44.696;10.622;2023-03-21T19:20:11;27.35;;;18.90;;
40637;SDS011;26336;44.696;10.622;2023-03-21T19:23:19;25.45;;;19.80;;
40637;SDS011;26336;44.696;10.622;2023-03-21T19:26:24;24.70;;;19.38;;
40637;SDS011;26336;44.696;10.622;2023-03-21T19:29:31;26.73;;;20.98;;
40637;SDS011;26336;44.696;10.622;2023-03-21T19:32:35;25.45;;;20.77;;
40637;SDS011;26336;44.696;10.622;2023-03-21T19:35:42;24.35;;;20.15;;
40637;SDS011;26336;44.696;10.622;2023-03-21T19:38:46;28.08;;;22.25;;
40637;SDS011;26336;44.696;10.622;2023-03-21T19:41:54;26.60;;;21.58;;
40637;SDS011;26336;44.696;10.622;2023-03-21T19:44:59;30.02;;;23.73;;
40637;SDS011;26336;44.696;10.622;2023-03-21T19:48:03;31.63;;;24.00;;
40637;SDS011;26336;44.696;10.622;2023-03-21T19:51:08;31.65;;;24.88;;
40637;SDS011;26336;44.696;10.622;2023-03-21T19:54:12;29.10;;;22.65;;
40637;SDS011;26336;44.696;10.622;2023-03-21T19:57:19;30.10;;;23.17;;
40637;SDS011;26336;44.696;10.622;2023-03-21T20:00:23;33.65;;;25.58;;
40637;SDS011;26336;44.696;10.622;2023-03-21T20:03:27;34.83;;;26.13;;